Time;durP1;ratioP1;P1;durP2;ratioP2;P2;SDS_P1;SDS_P2;PMS_P1;PMS_P2;Temp;Humidity;BMP_temperature;BMP_pressure;BME280_temperature;BME280_humidity;BME280_pressure;Samples;Min_cycle;Max_cycle;Signal;HPM_P1;HPM_P2
2020/12/18 00:00:35;;;;;;;;;20.50;19.25;;;;;;;;5032275;28;11488;-87
2020/12/18 00:03:01;;;;;;;;;26.00;21.75;;;;;;;;5030031;28;11539;-88
2020/12/18 00:05:32;;;;;;;;;19.50;19.50;;;;;;;;5037234;28;11558;-85
2020/12/18 00:07:59;;;;;;;;;15.25;15.25;;;;;;;;5026476;28;11231;-85
2020/12/18 00:10:27;;;;;;;;;22.50;20.00;;;;;;;;5027635;28;11234;-84
2020/12/18 00:12:54;;;;;;;;;26.50;20.75;;;;;;;;5027202;28;11294;-88
2020/12/18 00:15:24;;;;;;;;;24.25;19.00;;;;;;;;5027389;28;11158;-83
2020/12/18 00:17:51;;;;;;;;;17.00;16.00;;;;;;;;5027144;28;12836;-85
2020/12/18 00:20:18;;;;;;;;;10.25;10.25;;;;;;;;5032126;28;11185;-86
2020/12/18 00:22:45;;;;;;;;;22.00;18.50;;;;;;;;5026023;28;11092;-84
2020/12/18 00:25:12;;;;;;;;;14.00;14.00;;;;;;;;5025805;28;11137;-88
2020/12/18 00:27:39;;;;;;;;;19.00;16.50;;;;;;;;5025978;28;11149;-89
2020/12/18 00:30:07;;;;;;;;;23.25;19.00;;;;;;;;5027961;28;11087;-90
2020/12/18 00:32:34;;;;;;;;;19.75;16.50;;;;;;;;5032394;28;11133;-89
2020/12/18 00:35:01;;;;;;;;;18.25;16.50;;;;;;;;5030204;28;11070;-88
2020/12/18 00:37:28;;;;;;;;;19.00;17.25;;;;;;;;5025541;28;11333;-84
2020/12/18 00:39:56;;;;;;;;;26.25;25.25;;;;;;;;5028867;28;11285;-88
2020/12/18 00:42:23;;;;;;;;;20.25;19.00;;;;;;;;5031676;28;11252;-88
2020/12/18 00:44:49;;;;;;;;;17.50;17.50;;;;;;;;5025740;28;11049;-87
2020/12/18 00:47:16;;;;;;;;;21.25;18.75;;;;;;;;5026738;28;11078;-89
2020/12/18 00:49:43;;;;;;;;;24.25;24.00;;;;;;;;5025306;28;11072;-89
2020/12/18 00:52:09;;;;;;;;;19.50;19.25;;;;;;;;5026931;28;11192;-88
2020/12/18 00:54:37;;;;;;;;;24.00;24.00;;;;;;;;5025393;28;10981;-88
2020/12/18 00:57:05;;;;;;;;;21.75;17.50;;;;;;;;5031718;28;11774;-88
2020/12/18 00:59:31;;;;;;;;;23.25;19.75;;;;;;;;5026201;28;11133;-88
2020/12/18 01:01:59;;;;;;;;;22.75;20.25;;;;;;;;5027018;28;10900;-86
2020/12/18 01:04:26;;;;;;;;;15.50;15.50;;;;;;;;5026294;28;10953;-87
2020/12/18 01:06:54;;;;;;;;;28.75;21.25;;;;;;;;5025033;28;10864;-88
2020/12/18 01:09:21;;;;;;;;;21.00;19.50;;;;;;;;5026673;28;11171;-82
2020/12/18 01:11:48;;;;;;;;;19.25;16.50;;;;;;;;5026891;28;10899;-89
2020/12/18 01:14:16;;;;;;;;;16.00;16.00;;;;;;;;5041051;28;10915;-86
2020/12/18 01:16:47;;;;;;;;;23.50;18.75;;;;;;;;5026179;28;10850;-88
2020/12/18 01:19:14;;;;;;;;;21.75;15.75;;;;;;;;5023973;28;10900;-85
2020/12/18 01:21:41;;;;;;;;;16.25;16.25;;;;;;;;5025998;28;10671;-87
2020/12/18 01:24:08;;;;;;;;;20.00;17.00;;;;;;;;5025571;28;10768;-88
2020/12/18 01:26:35;;;;;;;;;17.50;16.50;;;;;;;;5028734;28;11648;-89
2020/12/18 01:29:02;;;;;;;;;14.50;14.50;;;;;;;;5025035;28;10696;-88
2020/12/18 01:31:29;;;;;;;;;18.75;16.50;;;;;;;;5030689;28;10518;-89
2020/12/18 01:33:56;;;;;;;;;15.00;15.00;;;;;;;;5025923;28;10717;-89
2020/12/18 01:36:23;;;;;;;;;21.75;17.50;;;;;;;;5028395;28;10709;-88
2020/12/18 01:38:49;;;;;;;;;24.50;16.50;;;;;;;;5025514;28;10843;-89
2020/12/18 01:41:16;;;;;;;;;17.75;16.00;;;;;;;;5025487;28;11449;-89
2020/12/18 01:43:43;;;;;;;;;26.25;24.25;;;;;;;;5032610;28;10829;-89
2020/12/18 01:46:12;;;;;;;;;24.25;21.00;;;;;;;;5024512;28;11020;-90
2020/12/18 01:48:40;;;;;;;;;26.00;20.50;;;;;;;;5027386;28;10918;-87
2020/12/18 01:51:08;;;;;;;;;20.75;20.75;;;;;;;;5022687;28;10920;-88
2020/12/18 01:53:35;;;;;;;;;24.50;21.25;;;;;;;;5026092;28;10980;-89
2020/12/18 01:56:02;;;;;;;;;23.00;15.75;;;;;;;;5027902;28;11799;-89
2020/12/18 01:58:30;;;;;;;;;30.50;26.25;;;;;;;;5024615;28;10904;-86
2020/12/18 02:01:00;;;;;;;;;26.50;26.25;;;;;;;;5024958;28;11126;-85
2020/12/18 02:03:27;;;;;;;;;28.00;25.00;;;;;;;;5022808;28;10997;-87
2020/12/18 02:05:57;;;;;;;;;20.50;18.25;;;;;;;;5024570;28;10924;-87
2020/12/18 02:08:26;;;;;;;;;20.25;17.00;;;;;;;;5025487;28;11015;-83
2020/12/18 02:10:56;;;;;;;;;29.50;24.50;;;;;;;;5029270;28;11182;-90
2020/12/18 02:13:23;;;;;;;;;28.50;22.25;;;;;;;;5025716;28;11067;-89
2020/12/18 02:15:51;;;;;;;;;22.00;22.00;;;;;;;;5024169;28;11077;-89
2020/12/18 02:18:19;;;;;;;;;25.25;22.75;;;;;;;;5025655;28;10889;-87
2020/12/18 02:20:46;;;;;;;;;16.50;15.50;;;;;;;;5023884;28;10905;-87
2020/12/18 02:23:14;;;;;;;;;27.50;25.25;;;;;;;;5017649;28;11067;-86
2020/12/18 02:25:43;;;;;;;;;25.00;22.00;;;;;;;;5025764;28;11009;-86
2020/12/18 02:28:12;;;;;;;;;20.50;20.50;;;;;;;;5023411;28;10928;-84
2020/12/18 02:30:39;;;;;;;;;22.75;20.50;;;;;;;;5025359;28;10850;-87
2020/12/18 02:33:07;;;;;;;;;21.00;21.00;;;;;;;;5024709;28;10763;-87
2020/12/18 02:35:35;;;;;;;;;17.75;17.25;;;;;;;;5023952;28;11499;-87
2020/12/18 02:38:03;;;;;;;;;20.75;19.75;;;;;;;;5021910;28;10602;-89
2020/12/18 02:40:30;;;;;;;;;13.75;13.00;;;;;;;;5024304;28;10700;-88
2020/12/18 02:42:56;;;;;;;;;18.50;17.00;;;;;;;;5023612;28;10505;-85
2020/12/18 02:45:24;;;;;;;;;21.25;18.25;;;;;;;;5024979;28;10699;-86
2020/12/18 02:47:51;;;;;;;;;16.00;16.00;;;;;;;;5023312;28;10584;-87
2020/12/18 02:50:18;;;;;;;;;17.00;15.75;;;;;;;;5023252;28;10357;-86
2020/12/18 02:52:45;;;;;;;;;17.50;15.00;;;;;;;;5025346;28;10500;-88
2020/12/18 02:55:12;;;;;;;;;17.00;13.25;;;;;;;;5025309;28;10444;-89
2020/12/18 02:57:39;;;;;;;;;18.25;15.50;;;;;;;;5041441;28;10345;-89
2020/12/18 03:00:06;;;;;;;;;16.75;16.00;;;;;;;;5022058;28;10429;-89
2020/12/18 03:02:36;;;;;;;;;10.50;10.50;;;;;;;;5024831;28;10336;-89
2020/12/18 03:05:03;;;;;;;;;14.00;10.50;;;;;;;;5025115;28;10371;-89
2020/12/18 03:07:30;;;;;;;;;20.00;16.50;;;;;;;;5024408;28;10373;-88
2020/12/18 03:09:57;;;;;;;;;15.25;15.25;;;;;;;;5029880;28;11279;-88
2020/12/18 03:12:23;;;;;;;;;16.75;16.75;;;;;;;;5032335;28;10379;-87
2020/12/18 03:14:50;;;;;;;;;21.00;17.50;;;;;;;;5026445;28;10370;-85
2020/12/18 03:17:17;;;;;;;;;19.25;19.25;;;;;;;;5023476;28;10473;-86
2020/12/18 03:19:45;;;;;;;;;13.50;13.50;;;;;;;;5024014;28;10367;-83
2020/12/18 03:22:12;;;;;;;;;19.50;16.00;;;;;;;;5028990;28;10322;-83
2020/12/18 03:24:39;;;;;;;;;13.00;13.00;;;;;;;;5026741;28;10609;-88
2020/12/18 03:27:06;;;;;;;;;17.25;14.50;;;;;;;;5025329;28;10100;-86
2020/12/18 03:29:32;;;;;;;;;13.50;13.50;;;;;;;;5023214;28;10375;-89
2020/12/18 03:31:59;;;;;;;;;11.50;11.50;;;;;;;;5027257;28;10169;-87
2020/12/18 03:34:26;;;;;;;;;18.75;15.75;;;;;;;;5031651;28;10280;-85
2020/12/18 03:36:54;;;;;;;;;17.00;13.75;;;;;;;;5028017;28;10228;-88
2020/12/18 03:39:21;;;;;;;;;15.00;13.00;;;;;;;;5027442;28;10266;-86
2020/12/18 03:41:47;;;;;;;;;12.00;12.00;;;;;;;;5030128;28;10142;-87
2020/12/18 03:44:14;;;;;;;;;19.00;13.50;;;;;;;;5031387;28;10283;-86
2020/12/18 03:46:41;;;;;;;;;16.00;13.50;;;;;;;;5027712;28;10199;-88
2020/12/18 03:49:08;;;;;;;;;16.00;11.50;;;;;;;;5028892;28;10344;-85
2020/12/18 03:51:35;;;;;;;;;18.00;13.50;;;;;;;;5031304;28;10193;-86
2020/12/18 03:54:03;;;;;;;;;13.25;12.75;;;;;;;;5030487;28;10114;-85
2020/12/18 03:56:30;;;;;;;;;15.25;12.50;;;;;;;;5027958;28;10157;-85
2020/12/18 03:58:57;;;;;;;;;10.50;10.50;;;;;;;;5029338;28;10151;-87
2020/12/18 04:01:25;;;;;;;;;11.50;9.25;;;;;;;;5029404;28;10253;-83
2020/12/18 04:03:51;;;;;;;;;12.50;12.25;;;;;;;;5028725;28;10282;-87
2020/12/18 04:06:19;;;;;;;;;11.50;11.50;;;;;;;;5027831;28;10937;-85
2020/12/18 04:08:46;;;;;;;;;13.25;12.50;;;;;;;;5026698;28;10388;-88
2020/12/18 04:11:14;;;;;;;;;11.75;11.00;;;;;;;;5026426;28;10263;-86
2020/12/18 04:13:42;;;;;;;;;11.75;11.00;;;;;;;;5026622;28;10367;-81
2020/12/18 04:16:08;;;;;;;;;9.25;9.25;;;;;;;;5026743;28;10124;-88
2020/12/18 04:18:35;;;;;;;;;9.50;9.50;;;;;;;;5027091;28;10247;-88
2020/12/18 04:21:02;;;;;;;;;11.00;11.00;;;;;;;;5029379;28;10187;-87
2020/12/18 04:23:29;;;;;;;;;8.00;8.00;;;;;;;;5028102;28;10351;-86
2020/12/18 04:25:56;;;;;;;;;11.75;10.00;;;;;;;;5024471;28;10346;-86
2020/12/18 04:28:24;;;;;;;;;10.00;7.00;;;;;;;;5029987;28;10284;-88
2020/12/18 04:30:51;;;;;;;;;9.75;9.75;;;;;;;;5029350;28;10380;-90
2020/12/18 04:33:18;;;;;;;;;7.75;6.75;;;;;;;;5037603;28;10368;-89
2020/12/18 04:35:45;;;;;;;;;7.00;7.00;;;;;;;;5030360;28;10376;-89
2020/12/18 04:38:13;;;;;;;;;12.25;11.50;;;;;;;;5030803;28;10470;-89
2020/12/18 04:40:41;;;;;;;;;11.00;8.50;;;;;;;;5027336;28;10543;-89
2020/12/18 04:43:08;;;;;;;;;10.50;10.50;;;;;;;;5025248;28;10507;-89
2020/12/18 04:45:36;;;;;;;;;12.25;10.50;;;;;;;;5027214;28;10488;-84
2020/12/18 04:48:06;;;;;;;;;11.75;11.75;;;;;;;;5044856;28;11362;-86
2020/12/18 04:50:34;;;;;;;;;8.25;7.25;;;;;;;;5027445;28;10468;-83
2020/12/18 04:53:01;;;;;;;;;7.00;7.00;;;;;;;;5024593;28;10573;-85
2020/12/18 04:55:30;;;;;;;;;12.75;12.75;;;;;;;;5029312;28;10506;-88
2020/12/18 04:57:58;;;;;;;;;10.50;10.50;;;;;;;;5028175;28;10642;-87
2020/12/18 05:00:25;;;;;;;;;13.75;10.50;;;;;;;;5028350;28;10519;-88
2020/12/18 05:02:53;;;;;;;;;12.50;12.50;;;;;;;;5027238;28;10685;-88
2020/12/18 05:05:20;;;;;;;;;10.00;7.50;;;;;;;;5025859;28;10774;-87
2020/12/18 05:07:47;;;;;;;;;18.50;16.25;;;;;;;;5025961;28;10624;-87
2020/12/18 05:10:14;;;;;;;;;10.25;9.00;;;;;;;;5025664;28;10823;-85
2020/12/18 05:12:41;;;;;;;;;10.00;10.00;;;;;;;;5034550;28;10480;-85
2020/12/18 05:15:08;;;;;;;;;9.75;9.75;;;;;;;;5022551;28;10561;-82
2020/12/18 05:17:36;;;;;;;;;10.00;10.00;;;;;;;;5023872;28;10754;-86
2020/12/18 05:20:05;;;;;;;;;13.50;9.00;;;;;;;;5030881;28;10468;-84
2020/12/18 05:22:32;;;;;;;;;11.00;10.00;;;;;;;;5025272;28;10685;-85
2020/12/18 05:25:00;;;;;;;;;11.00;9.50;;;;;;;;5026410;28;10600;-87
2020/12/18 05:27:28;;;;;;;;;11.25;10.75;;;;;;;;5023996;28;10766;-78
2020/12/18 05:29:56;;;;;;;;;11.25;11.25;;;;;;;;5026821;28;10777;-87
2020/12/18 05:32:22;;;;;;;;;7.00;7.00;;;;;;;;5025080;28;10782;-87
2020/12/18 05:34:50;;;;;;;;;13.25;7.75;;;;;;;;5026841;28;10789;-84
2020/12/18 05:37:18;;;;;;;;;10.25;10.25;;;;;;;;5026140;28;10972;-86
2020/12/18 05:39:45;;;;;;;;;8.75;8.75;;;;;;;;5025661;28;10798;-87
2020/12/18 05:42:12;;;;;;;;;13.25;11.00;;;;;;;;5024912;28;10962;-87
2020/12/18 05:44:39;;;;;;;;;13.75;12.75;;;;;;;;5024124;28;11022;-84
2020/12/18 05:47:07;;;;;;;;;9.75;9.75;;;;;;;;5027383;28;11038;-86
2020/12/18 05:49:34;;;;;;;;;8.00;8.00;;;;;;;;5025357;28;11022;-85
2020/12/18 05:52:02;;;;;;;;;11.25;9.25;;;;;;;;5025571;28;11046;-85
2020/12/18 05:54:34;;;;;;;;;14.00;11.50;;;;;;;;5019269;28;10997;-84
2020/12/18 05:57:11;;;;;;;;;10.50;7.00;;;;;;;;5016348;28;11840;-88
2020/12/18 05:59:42;;;;;;;;;10.25;8.50;;;;;;;;5022618;28;12072;-88
2020/12/18 06:02:14;;;;;;;;;9.00;9.00;;;;;;;;5024476;28;11344;-83
2020/12/18 06:04:41;;;;;;;;;8.50;7.50;;;;;;;;5046633;28;11123;-84
2020/12/18 06:07:09;;;;;;;;;10.50;10.50;;;;;;;;5029417;28;11146;-85
2020/12/18 06:09:38;;;;;;;;;9.75;9.75;;;;;;;;5025646;28;11310;-85
2020/12/18 06:12:09;;;;;;;;;15.50;12.50;;;;;;;;5021707;28;12305;-84
2020/12/18 06:14:36;;;;;;;;;9.00;9.00;;;;;;;;5021208;28;11548;-84
2020/12/18 06:17:07;;;;;;;;;14.00;13.50;;;;;;;;5023099;28;11245;-84
2020/12/18 06:19:38;;;;;;;;;13.50;10.75;;;;;;;;5023623;28;11560;-84
2020/12/18 06:22:08;;;;;;;;;13.25;13.25;;;;;;;;5022968;28;11277;-84
2020/12/18 06:24:41;;;;;;;;;8.00;8.00;;;;;;;;5022463;28;11566;-85
2020/12/18 06:27:12;;;;;;;;;7.50;6.00;;;;;;;;5022561;28;11074;-81
2020/12/18 06:29:39;;;;;;;;;12.25;10.00;;;;;;;;5024228;28;11133;-86
2020/12/18 06:32:23;;;;;;;;;10.50;10.50;;;;;;;;5052761;28;11463;-85
2020/12/18 06:34:50;;;;;;;;;9.00;6.00;;;;;;;;5022983;28;11642;-85
2020/12/18 06:37:28;;;;;;;;;9.75;9.75;;;;;;;;5021586;28;11270;-82
2020/12/18 06:39:56;;;;;;;;;13.25;11.00;;;;;;;;5023585;28;11151;-85
2020/12/18 06:42:24;;;;;;;;;9.00;9.00;;;;;;;;5022763;28;11590;-83
2020/12/18 06:44:52;;;;;;;;;9.50;7.00;;;;;;;;5022824;28;11620;-84
2020/12/18 06:47:21;;;;;;;;;9.75;9.75;;;;;;;;5023099;28;11478;-81
2020/12/18 06:50:07;;;;;;;;;7.00;7.00;;;;;;;;5022659;28;11517;-81
2020/12/18 06:52:41;;;;;;;;;9.00;9.00;;;;;;;;5022199;28;11237;-77
2020/12/18 06:55:10;;;;;;;;;13.75;6.75;;;;;;;;5021650;28;11473;-73
2020/12/18 06:57:37;;;;;;;;;6.75;6.25;;;;;;;;5019245;28;11829;-73
2020/12/18 07:00:26;;;;;;;;;8.50;6.50;;;;;;;;5023489;28;11503;-74
2020/12/18 07:02:53;;;;;;;;;8.25;8.25;;;;;;;;5020018;28;11500;-74
2020/12/18 07:05:34;;;;;;;;;10.25;9.00;;;;;;;;5022110;28;11541;-73
2020/12/18 07:08:03;;;;;;;;;10.00;8.00;;;;;;;;5019497;28;11522;-73
2020/12/18 07:10:32;;;;;;;;;5.00;5.00;;;;;;;;5026522;28;11501;-73
2020/12/18 07:13:00;;;;;;;;;7.25;7.25;;;;;;;;5025642;28;11677;-73
2020/12/18 07:15:51;;;;;;;;;10.75;9.75;;;;;;;;5022191;28;11451;-72
2020/12/18 07:18:21;;;;;;;;;13.00;10.00;;;;;;;;5025583;28;11511;-74
2020/12/18 07:20:50;;;;;;;;;10.50;8.50;;;;;;;;5022470;28;11476;-73
2020/12/18 07:23:17;;;;;;;;;8.50;6.25;;;;;;;;5022699;28;11480;-73
2020/12/18 07:25:45;;;;;;;;;7.50;7.50;;;;;;;;5022889;28;11506;-74
2020/12/18 07:28:12;;;;;;;;;9.75;7.50;;;;;;;;5022084;28;11479;-73
2020/12/18 07:30:41;;;;;;;;;9.75;7.50;;;;;;;;5023390;28;11400;-73
2020/12/18 07:33:09;;;;;;;;;6.00;6.00;;;;;;;;5021804;28;11507;-72
2020/12/18 07:35:37;;;;;;;;;8.50;8.50;;;;;;;;5023398;28;11474;-73
2020/12/18 07:38:12;;;;;;;;;7.50;6.00;;;;;;;;5021522;28;11522;-74
2020/12/18 07:40:40;;;;;;;;;9.00;7.25;;;;;;;;5021828;28;11491;-74
2020/12/18 07:43:09;;;;;;;;;15.50;9.25;;;;;;;;5018968;28;12277;-73
2020/12/18 07:45:41;;;;;;;;;16.50;11.75;;;;;;;;5022952;28;11521;-73
2020/12/18 07:48:12;;;;;;;;;11.00;8.75;;;;;;;;5023451;28;11536;-74
2020/12/18 07:50:39;;;;;;;;;9.00;9.00;;;;;;;;5020336;28;12314;-74
2020/12/18 07:53:07;;;;;;;;;9.25;9.25;;;;;;;;5023301;28;11496;-75
2020/12/18 07:55:34;;;;;;;;;9.50;8.00;;;;;;;;5013466;28;12303;-74
2020/12/18 07:58:01;;;;;;;;;8.00;8.00;;;;;;;;5014350;28;11509;-73
2020/12/18 08:00:29;;;;;;;;;6.75;5.75;;;;;;;;5009291;28;11408;-73
2020/12/18 08:02:56;;;;;;;;;9.00;8.00;;;;;;;;5006906;28;11496;-74
2020/12/18 08:05:23;;;;;;;;;6.00;6.00;;;;;;;;5010478;28;11580;-73
2020/12/18 08:07:51;;;;;;;;;6.50;6.50;;;;;;;;5009391;28;11488;-73
2020/12/18 08:10:18;;;;;;;;;5.75;5.75;;;;;;;;5018370;28;11505;-73
2020/12/18 08:12:50;;;;;;;;;6.00;6.00;;;;;;;;5011054;28;12245;-73
2020/12/18 08:15:17;;;;;;;;;9.75;7.00;;;;;;;;5013650;28;11550;-73
2020/12/18 08:17:45;;;;;;;;;13.75;7.00;;;;;;;;5012740;28;11489;-74
2020/12/18 08:20:14;;;;;;;;;10.00;7.25;;;;;;;;5020112;28;11488;-71
2020/12/18 08:22:44;;;;;;;;;10.00;7.25;;;;;;;;5014627;28;12272;-74
2020/12/18 08:25:12;;;;;;;;;4.00;4.00;;;;;;;;5019087;28;11560;-73
2020/12/18 08:27:46;;;;;;;;;8.25;6.75;;;;;;;;5017029;28;11492;-72
2020/12/18 08:30:16;;;;;;;;;6.75;6.75;;;;;;;;5012434;28;11491;-73
2020/12/18 08:32:48;;;;;;;;;1.50;1.50;;;;;;;;5013231;28;11508;-73
2020/12/18 08:35:19;;;;;;;;;2.25;2.25;;;;;;;;5013762;28;11504;-74
2020/12/18 08:37:48;;;;;;;;;7.75;6.50;;;;;;;;5005799;28;11503;-74
2020/12/18 08:40:19;;;;;;;;;6.25;6.25;;;;;;;;5017741;28;11435;-74
2020/12/18 08:42:57;;;;;;;;;5.25;5.25;;;;;;;;5018331;28;11488;-74
2020/12/18 08:45:24;;;;;;;;;7.50;5.00;;;;;;;;5021388;28;11522;-73
2020/12/18 08:47:52;;;;;;;;;6.00;6.00;;;;;;;;5049133;28;11509;-74
2020/12/18 08:50:19;;;;;;;;;7.00;7.00;;;;;;;;5019509;28;11512;-74
2020/12/18 08:52:47;;;;;;;;;5.50;5.00;;;;;;;;5017523;28;11461;-74
2020/12/18 08:55:14;;;;;;;;;7.00;7.00;;;;;;;;5018303;28;11880;-73
2020/12/18 08:57:41;;;;;;;;;8.50;6.00;;;;;;;;5014331;28;11548;-74
2020/12/18 09:00:13;;;;;;;;;7.00;7.00;;;;;;;;5019234;28;11476;-74
2020/12/18 09:02:43;;;;;;;;;3.50;3.50;;;;;;;;5016157;28;11181;-74
2020/12/18 09:05:17;;;;;;;;;8.00;6.00;;;;;;;;5018670;28;11482;-74
2020/12/18 09:07:48;;;;;;;;;7.00;5.50;;;;;;;;5017547;28;11274;-75
2020/12/18 09:10:15;;;;;;;;;8.25;8.25;;;;;;;;5017291;28;11499;-74
2020/12/18 09:12:43;;;;;;;;;8.00;5.75;;;;;;;;5008669;28;11223;-74
2020/12/18 09:15:26;;;;;;;;;5.25;5.25;;;;;;;;5013337;28;11493;-73
2020/12/18 09:18:01;;;;;;;;;8.50;8.50;;;;;;;;5016214;28;11100;-73
2020/12/18 09:20:30;;;;;;;;;11.50;11.50;;;;;;;;5020242;28;11297;-73
2020/12/18 09:23:00;;;;;;;;;6.00;6.00;;;;;;;;5015524;28;11476;-73
2020/12/18 09:25:27;;;;;;;;;8.00;6.50;;;;;;;;5015222;28;12058;-73
2020/12/18 09:27:56;;;;;;;;;7.00;7.00;;;;;;;;5011746;28;11111;-73
2020/12/18 09:30:27;;;;;;;;;7.00;7.00;;;;;;;;5018352;28;11107;-73
2020/12/18 09:33:10;;;;;;;;;6.00;6.00;;;;;;;;5021585;28;11237;-73
2020/12/18 09:35:38;;;;;;;;;6.00;6.00;;;;;;;;5017067;28;11151;-72
2020/12/18 09:38:05;;;;;;;;;6.75;6.75;;;;;;;;5022024;28;11066;-71
2020/12/18 09:40:32;;;;;;;;;7.00;5.25;;;;;;;;5012932;28;10963;-70
2020/12/18 09:42:59;;;;;;;;;5.00;5.00;;;;;;;;5009276;28;10958;-73
2020/12/18 09:45:26;;;;;;;;;7.00;7.00;;;;;;;;5015909;28;10790;-70
2020/12/18 09:47:53;;;;;;;;;2.75;2.75;;;;;;;;5019492;28;10875;-73
2020/12/18 09:50:19;;;;;;;;;5.00;5.00;;;;;;;;5018789;28;10792;-72
2020/12/18 09:52:47;;;;;;;;;4.50;4.50;;;;;;;;5013107;28;10805;-71
2020/12/18 09:55:15;;;;;;;;;6.75;6.75;;;;;;;;5012411;28;10842;-72
2020/12/18 09:57:42;;;;;;;;;7.00;7.00;;;;;;;;5017612;28;10718;-73
2020/12/18 10:00:09;;;;;;;;;6.00;6.00;;;;;;;;5013442;28;10756;-75
2020/12/18 10:02:36;;;;;;;;;6.50;6.50;;;;;;;;5011021;28;10678;-74
2020/12/18 10:05:03;;;;;;;;;6.25;6.25;;;;;;;;5018060;28;10732;-73
2020/12/18 10:07:30;;;;;;;;;9.50;7.25;;;;;;;;5013406;28;10628;-74
2020/12/18 10:09:58;;;;;;;;;7.50;6.00;;;;;;;;5016045;28;11801;-73
2020/12/18 10:12:25;;;;;;;;;7.75;6.00;;;;;;;;5011281;28;10551;-74
2020/12/18 10:14:52;;;;;;;;;7.00;7.00;;;;;;;;5017154;28;10398;-73
2020/12/18 10:17:19;;;;;;;;;6.75;5.25;;;;;;;;5018274;28;10436;-74
2020/12/18 10:19:46;;;;;;;;;6.00;6.00;;;;;;;;5023148;28;10388;-75
2020/12/18 10:22:13;;;;;;;;;8.75;7.00;;;;;;;;5010611;28;10446;-73
2020/12/18 10:24:39;;;;;;;;;10.00;7.75;;;;;;;;5015760;28;10401;-71
2020/12/18 10:27:07;;;;;;;;;8.25;7.00;;;;;;;;5012648;28;10305;-74
2020/12/18 10:29:33;;;;;;;;;5.25;5.25;;;;;;;;5010248;28;10285;-73
2020/12/18 10:32:00;;;;;;;;;5.00;5.00;;;;;;;;5016328;28;10106;-74
2020/12/18 10:34:27;;;;;;;;;7.25;6.00;;;;;;;;5009355;28;10143;-73
2020/12/18 10:36:55;;;;;;;;;6.00;6.00;;;;;;;;5011287;28;10066;-73
2020/12/18 10:39:23;;;;;;;;;5.00;5.00;;;;;;;;5008424;28;10037;-73
2020/12/18 10:41:50;;;;;;;;;7.75;6.75;;;;;;;;5020383;28;9969;-73
2020/12/18 10:44:19;;;;;;;;;7.00;7.00;;;;;;;;5024014;28;9971;-75
2020/12/18 10:46:46;;;;;;;;;6.75;6.75;;;;;;;;5015283;28;9976;-75
2020/12/18 10:49:13;;;;;;;;;6.25;6.25;;;;;;;;5016641;28;10088;-73
2020/12/18 10:51:41;;;;;;;;;7.00;7.00;;;;;;;;5017618;28;10155;-74
2020/12/18 10:54:08;;;;;;;;;6.00;6.00;;;;;;;;5017443;28;10020;-73
2020/12/18 10:56:42;;;;;;;;;5.75;5.00;;;;;;;;5020189;28;9808;-75
2020/12/18 10:59:09;;;;;;;;;12.00;10.00;;;;;;;;5020571;28;9950;-71
2020/12/18 11:01:38;;;;;;;;;18.75;18.75;;;;;;;;5024341;28;10175;-75
2020/12/18 11:04:05;;;;;;;;;23.75;23.75;;;;;;;;5010544;28;10276;-73
2020/12/18 11:06:37;;;;;;;;;14.00;14.00;;;;;;;;5018463;28;10415;-74
2020/12/18 11:09:04;;;;;;;;;11.75;11.75;;;;;;;;5010389;28;10215;-75
2020/12/18 11:11:31;;;;;;;;;9.00;9.00;;;;;;;;5009881;28;10026;-74
2020/12/18 11:13:58;;;;;;;;;7.00;7.00;;;;;;;;5013440;28;9957;-74
2020/12/18 11:16:25;;;;;;;;;8.75;7.25;;;;;;;;5016387;28;9783;-74
2020/12/18 11:18:53;;;;;;;;;6.25;3.00;;;;;;;;5017666;28;10638;-73
2020/12/18 11:21:20;;;;;;;;;5.00;5.00;;;;;;;;5019358;28;10481;-74
2020/12/18 11:23:46;;;;;;;;;4.50;4.50;;;;;;;;5015347;28;9407;-74
2020/12/18 11:26:13;;;;;;;;;4.00;4.00;;;;;;;;5020342;28;9613;-74
2020/12/18 11:28:40;;;;;;;;;6.00;6.00;;;;;;;;5018220;28;9411;-70
2020/12/18 11:31:07;;;;;;;;;5.50;4.00;;;;;;;;5019435;28;9381;-74
2020/12/18 11:33:34;;;;;;;;;2.00;2.00;;;;;;;;5019238;28;9543;-75
2020/12/18 11:36:02;;;;;;;;;4.67;3.67;;;;;;;;5024986;28;9512;-73
2020/12/18 11:38:29;;;;;;;;;6.00;6.00;;;;;;;;5024131;28;9516;-73
2020/12/18 11:40:56;;;;;;;;;6.67;6.67;;;;;;;;5017356;28;9447;-74
2020/12/18 11:43:22;;;;;;;;;4.00;4.00;;;;;;;;5024219;28;9275;-73
2020/12/18 11:45:49;;;;;;;;;6.00;3.33;;;;;;;;5019218;28;9971;-74
2020/12/18 11:48:16;;;;;;;;;3.67;3.67;;;;;;;;5012413;28;9207;-74
2020/12/18 11:50:43;;;;;;;;;3.00;3.00;;;;;;;;5020111;28;9100;-74
2020/12/18 11:53:11;;;;;;;;;3.00;3.00;;;;;;;;5021101;28;9096;-74
2020/12/18 11:55:38;;;;;;;;;2.00;2.00;;;;;;;;5019670;28;9015;-74
2020/12/18 11:58:05;;;;;;;;;5.00;4.00;;;;;;;;5020247;28;9106;-74
2020/12/18 12:00:32;;;;;;;;;3.67;3.67;;;;;;;;5025412;28;9165;-74
2020/12/18 12:02:59;;;;;;;;;3.00;3.00;;;;;;;;5025714;28;9110;-74
2020/12/18 12:05:27;;;;;;;;;4.00;4.00;;;;;;;;5027141;28;9165;-75
2020/12/18 12:07:54;;;;;;;;;4.00;4.00;;;;;;;;5028623;28;8987;-74
2020/12/18 12:10:22;;;;;;;;;3.00;3.00;;;;;;;;5025822;28;8875;-73
2020/12/18 12:12:49;;;;;;;;;3.50;2.50;;;;;;;;5026942;28;8914;-74
2020/12/18 12:15:17;;;;;;;;;6.50;4.00;;;;;;;;5026119;28;9390;-73
2020/12/18 12:17:44;;;;;;;;;2.00;2.00;;;;;;;;5029899;28;8875;-73
2020/12/18 12:20:11;;;;;;;;;3.00;3.00;;;;;;;;5025860;28;8888;-73
2020/12/18 12:22:39;;;;;;;;;4.00;4.00;;;;;;;;5023116;28;8856;-73
2020/12/18 12:25:06;;;;;;;;;2.00;2.00;;;;;;;;5026742;28;8934;-74
2020/12/18 12:27:33;;;;;;;;;3.75;3.75;;;;;;;;5024734;28;8860;-74
2020/12/18 12:30:02;;;;;;;;;4.00;4.00;;;;;;;;5023048;28;8889;-73
2020/12/18 12:32:29;;;;;;;;;7.00;4.00;;;;;;;;5039644;28;9037;-73
2020/12/18 12:34:56;;;;;;;;;3.50;3.50;;;;;;;;5026269;28;8890;-73
2020/12/18 12:37:22;;;;;;;;;3.50;3.50;;;;;;;;5058107;28;8917;-74
2020/12/18 12:39:50;;;;;;;;;3.75;3.75;;;;;;;;5032757;28;8922;-73
2020/12/18 12:42:17;;;;;;;;;2.75;2.75;;;;;;;;5025600;28;8941;-72
2020/12/18 12:44:45;;;;;;;;;8.25;3.75;;;;;;;;5020438;28;8887;-74
2020/12/18 12:47:12;;;;;;;;;6.25;5.50;;;;;;;;5026835;28;8876;-75
2020/12/18 12:49:38;;;;;;;;;7.75;7.25;;;;;;;;5025126;28;9641;-74
2020/12/18 12:52:05;;;;;;;;;4.25;4.25;;;;;;;;5025715;28;8864;-74
2020/12/18 12:54:32;;;;;;;;;7.00;7.00;;;;;;;;5025000;28;8892;-75
2020/12/18 12:56:59;;;;;;;;;5.00;5.00;;;;;;;;5026113;28;9764;-74
2020/12/18 12:59:26;;;;;;;;;4.75;4.75;;;;;;;;5024347;28;8983;-74
2020/12/18 13:01:53;;;;;;;;;3.25;3.00;;;;;;;;5009396;28;8827;-74
2020/12/18 13:04:20;;;;;;;;;2.75;2.75;;;;;;;;5004453;28;8901;-74
2020/12/18 13:06:48;;;;;;;;;4.00;4.00;;;;;;;;5004293;28;8875;-74
2020/12/18 13:09:14;;;;;;;;;4.00;4.00;;;;;;;;4996053;28;8871;-74
2020/12/18 13:11:41;;;;;;;;;9.25;5.50;;;;;;;;4993288;28;8869;-74
2020/12/18 13:14:08;;;;;;;;;7.00;4.50;;;;;;;;4993073;28;8873;-75
2020/12/18 13:16:36;;;;;;;;;4.00;4.00;;;;;;;;5003546;28;8875;-75
2020/12/18 13:19:04;;;;;;;;;3.75;3.75;;;;;;;;4994397;28;8886;-75
2020/12/18 13:21:32;;;;;;;;;4.00;4.00;;;;;;;;4999325;28;8890;-75
2020/12/18 13:23:59;;;;;;;;;3.00;3.00;;;;;;;;4997212;28;8874;-74
2020/12/18 13:26:26;;;;;;;;;5.00;5.00;;;;;;;;4998036;28;9088;-74
2020/12/18 13:28:53;;;;;;;;;3.00;3.00;;;;;;;;4988593;28;8939;-75
2020/12/18 13:31:20;;;;;;;;;4.00;4.00;;;;;;;;5004990;28;8831;-75
2020/12/18 13:33:49;;;;;;;;;3.50;3.00;;;;;;;;5016055;28;8897;-75
2020/12/18 13:36:19;;;;;;;;;4.00;4.00;;;;;;;;5018506;28;8860;-75
2020/12/18 13:38:45;;;;;;;;;3.00;3.00;;;;;;;;5010083;28;8854;-75
2020/12/18 13:41:12;;;;;;;;;6.50;6.50;;;;;;;;5021520;28;9827;-75
2020/12/18 13:43:39;;;;;;;;;4.75;4.75;;;;;;;;5023907;28;8869;-74
2020/12/18 13:46:06;;;;;;;;;5.00;4.00;;;;;;;;5015396;28;8872;-74
2020/12/18 13:48:33;;;;;;;;;4.75;4.75;;;;;;;;5015133;28;9500;-75
2020/12/18 13:51:00;;;;;;;;;6.00;4.75;;;;;;;;5016999;28;8848;-75
2020/12/18 13:53:29;;;;;;;;;7.75;5.00;;;;;;;;5018732;28;8879;-75
2020/12/18 13:55:55;;;;;;;;;7.00;4.50;;;;;;;;5007627;28;8933;-75
2020/12/18 13:58:22;;;;;;;;;7.00;7.00;;;;;;;;5010980;28;8897;-75
2020/12/18 14:00:49;;;;;;;;;5.25;4.00;;;;;;;;5006813;28;8788;-74
2020/12/18 14:03:16;;;;;;;;;4.25;4.25;;;;;;;;5012537;28;8914;-73
2020/12/18 14:05:43;;;;;;;;;4.25;4.25;;;;;;;;5013595;28;8863;-77
2020/12/18 14:08:10;;;;;;;;;3.75;3.75;;;;;;;;5014286;28;8891;-75
2020/12/18 14:10:38;;;;;;;;;8.75;4.00;;;;;;;;5008004;28;8940;-75
2020/12/18 14:13:05;;;;;;;;;3.75;3.75;;;;;;;;5018193;28;8887;-75
2020/12/18 14:15:32;;;;;;;;;4.00;4.00;;;;;;;;5012834;28;8860;-74
2020/12/18 14:17:59;;;;;;;;;3.00;3.00;;;;;;;;5011918;28;8970;-75
2020/12/18 14:20:26;;;;;;;;;5.00;5.00;;;;;;;;5010287;28;8876;-75
2020/12/18 14:22:53;;;;;;;;;5.00;2.00;;;;;;;;5009072;28;8855;-75
2020/12/18 14:25:20;;;;;;;;;8.00;4.00;;;;;;;;5011792;28;8863;-75
2020/12/18 14:27:48;;;;;;;;;4.00;4.00;;;;;;;;5011897;28;8939;-75
2020/12/18 14:30:14;;;;;;;;;4.00;3.00;;;;;;;;5013196;28;8868;-75
2020/12/18 14:32:41;;;;;;;;;3.00;3.00;;;;;;;;5008178;28;8866;-75
2020/12/18 14:35:08;;;;;;;;;5.00;5.00;;;;;;;;5011096;28;8894;-76
2020/12/18 14:37:35;;;;;;;;;4.25;4.25;;;;;;;;5012516;28;8965;-75
2020/12/18 14:40:03;;;;;;;;;4.00;4.00;;;;;;;;5013087;28;8926;-75